sensor_id;sensor_type;location;lat;lon;timestamp;P1;durP1;ratioP1;P2;durP2;ratioP2
39264;SDS011;42646;51.910;7.724;2022-07-29T00:00:54;3.50;;;1.35;;
39264;SDS011;42646;51.910;7.724;2022-07-29T00:03:21;3.65;;;1.30;;
39264;SDS011;42646;51.910;7.724;2022-07-29T00:05:49;3.22;;;1.30;;
39264;SDS011;42646;51.910;7.724;2022-07-29T00:08:18;2.67;;;1.33;;
39264;SDS011;42646;51.910;7.724;2022-07-29T00:10:47;3.60;;;1.23;;
39264;SDS011;42646;51.910;7.724;2022-07-29T00:13:15;2.90;;;1.40;;
39264;SDS011;42646;51.910;7.724;2022-07-29T00:15:43;4.65;;;1.55;;
39264;SDS011;42646;51.910;7.724;2022-07-29T00:18:11;3.80;;;1.42;;
39264;SDS011;42646;51.910;7.724;2022-07-29T00:20:39;4.22;;;1.58;;
39264;SDS011;42646;51.910;7.724;2022-07-29T00:23:06;3.97;;;1.50;;
39264;SDS011;42646;51.910;7.724;2022-07-29T00:25:39;3.05;;;1.35;;
39264;SDS011;42646;51.910;7.724;2022-07-29T00:28:08;3.03;;;1.35;;
39264;SDS011;42646;51.910;7.724;2022-07-29T00:30:35;3.63;;;1.40;;
39264;SDS011;42646;51.910;7.724;2022-07-29T00:33:03;3.03;;;1.33;;
39264;SDS011;42646;51.910;7.724;2022-07-29T00:35:34;3.78;;;1.60;;
39264;SDS011;42646;51.910;7.724;2022-07-29T00:38:10;3.38;;;1.40;;
39264;SDS011;42646;51.910;7.724;2022-07-29T00:40:39;3.15;;;1.40;;
39264;SDS011;42646;51.910;7.724;2022-07-29T00:43:11;2.90;;;1.30;;
39264;SDS011;42646;51.910;7.724;2022-07-29T00:45:39;3.40;;;1.58;;
39264;SDS011;42646;51.910;7.724;2022-07-29T00:48:07;3.17;;;1.50;;
39264;SDS011;42646;51.910;7.724;2022-07-29T00:50:35;4.85;;;1.40;;
39264;SDS011;42646;51.910;7.724;2022-07-29T00:53:05;3.17;;;1.40;;
39264;SDS011;42646;51.910;7.724;2022-07-29T00:55:33;4.63;;;1.60;;
39264;SDS011;42646;51.910;7.724;2022-07-29T00:58:02;5.65;;;1.55;;
39264;SDS011;42646;51.910;7.724;2022-07-29T01:00:32;3.58;;;1.40;;
39264;SDS011;42646;51.910;7.724;2022-07-29T01:02:59;2.95;;;1.42;;
39264;SDS011;42646;51.910;7.724;2022-07-29T01:05:29;4.55;;;2.00;;
39264;SDS011;42646;51.910;7.724;2022-07-29T01:08:16;3.58;;;1.67;;
39264;SDS011;42646;51.910;7.724;2022-07-29T01:10:45;3.90;;;1.80;;
39264;SDS011;42646;51.910;7.724;2022-07-29T01:13:14;3.75;;;1.70;;
39264;SDS011;42646;51.910;7.724;2022-07-29T01:15:46;4.43;;;2.00;;
39264;SDS011;42646;51.910;7.724;2022-07-29T01:18:18;5.35;;;2.53;;
39264;SDS011;42646;51.910;7.724;2022-07-29T01:20:55;5.70;;;2.28;;
39264;SDS011;42646;51.910;7.724;2022-07-29T01:23:58;3.70;;;1.58;;
39264;SDS011;42646;51.910;7.724;2022-07-29T01:26:42;5.15;;;2.10;;
39264;SDS011;42646;51.910;7.724;2022-07-29T01:29:19;3.97;;;1.75;;
39264;SDS011;42646;51.910;7.724;2022-07-29T01:34:30;6.97;;;1.98;;
39264;SDS011;42646;51.910;7.724;2022-07-29T01:37:07;5.55;;;2.35;;
39264;SDS011;42646;51.910;7.724;2022-07-29T01:39:42;4.18;;;1.67;;
39264;SDS011;42646;51.910;7.724;2022-07-29T01:42:14;3.85;;;1.60;;
39264;SDS011;42646;51.910;7.724;2022-07-29T01:44:50;4.55;;;1.60;;
39264;SDS011;42646;51.910;7.724;2022-07-29T01:47:23;3.45;;;1.60;;
39264;SDS011;42646;51.910;7.724;2022-07-29T01:49:56;4.03;;;1.50;;
39264;SDS011;42646;51.910;7.724;2022-07-29T01:52:27;4.22;;;1.63;;
39264;SDS011;42646;51.910;7.724;2022-07-29T01:55:02;3.22;;;1.77;;
39264;SDS011;42646;51.910;7.724;2022-07-29T01:57:34;4.88;;;1.63;;
39264;SDS011;42646;51.910;7.724;2022-07-29T02:00:08;2.95;;;1.40;;
39264;SDS011;42646;51.910;7.724;2022-07-29T02:02:41;2.75;;;1.50;;
39264;SDS011;42646;51.910;7.724;2022-07-29T02:05:12;4.88;;;2.33;;
39264;SDS011;42646;51.910;7.724;2022-07-29T02:07:42;4.07;;;1.97;;
39264;SDS011;42646;51.910;7.724;2022-07-29T02:10:11;4.55;;;1.95;;
39264;SDS011;42646;51.910;7.724;2022-07-29T02:12:40;4.43;;;1.80;;
39264;SDS011;42646;51.910;7.724;2022-07-29T02:15:17;3.58;;;1.70;;
39264;SDS011;42646;51.910;7.724;2022-07-29T02:17:50;4.93;;;1.80;;
39264;SDS011;42646;51.910;7.724;2022-07-29T02:20:22;4.22;;;1.88;;
39264;SDS011;42646;51.910;7.724;2022-07-29T02:22:52;3.38;;;1.40;;
39264;SDS011;42646;51.910;7.724;2022-07-29T02:25:21;4.25;;;1.50;;
39264;SDS011;42646;51.910;7.724;2022-07-29T02:28:02;5.30;;;1.47;;
39264;SDS011;42646;51.910;7.724;2022-07-29T02:30:34;4.25;;;1.40;;
39264;SDS011;42646;51.910;7.724;2022-07-29T02:33:06;3.20;;;1.50;;
39264;SDS011;42646;51.910;7.724;2022-07-29T02:35:35;3.17;;;1.50;;
39264;SDS011;42646;51.910;7.724;2022-07-29T02:38:04;2.80;;;1.45;;
39264;SDS011;42646;51.910;7.724;2022-07-29T02:40:50;2.85;;;1.38;;
39264;SDS011;42646;51.910;7.724;2022-07-29T02:43:20;4.68;;;1.77;;
39264;SDS011;42646;51.910;7.724;2022-07-29T02:45:51;4.30;;;1.52;;
39264;SDS011;42646;51.910;7.724;2022-07-29T02:48:22;4.25;;;1.42;;
39264;SDS011;42646;51.910;7.724;2022-07-29T02:50:57;3.47;;;1.60;;
39264;SDS011;42646;51.910;7.724;2022-07-29T02:53:32;3.63;;;1.50;;
39264;SDS011;42646;51.910;7.724;2022-07-29T02:56:04;4.07;;;1.70;;
39264;SDS011;42646;51.910;7.724;2022-07-29T02:58:37;4.40;;;1.77;;
39264;SDS011;42646;51.910;7.724;2022-07-29T03:01:10;4.93;;;2.10;;
39264;SDS011;42646;51.910;7.724;2022-07-29T03:03:47;6.93;;;2.60;;
39264;SDS011;42646;51.910;7.724;2022-07-29T03:06:16;5.63;;;2.40;;
39264;SDS011;42646;51.910;7.724;2022-07-29T03:09:03;5.13;;;1.80;;
39264;SDS011;42646;51.910;7.724;2022-07-29T03:11:38;4.57;;;1.73;;
39264;SDS011;42646;51.910;7.724;2022-07-29T03:14:16;4.45;;;1.70;;
39264;SDS011;42646;51.910;7.724;2022-07-29T03:16:48;4.38;;;1.60;;
39264;SDS011;42646;51.910;7.724;2022-07-29T03:19:17;3.03;;;1.35;;
39264;SDS011;42646;51.910;7.724;2022-07-29T03:21:45;4.28;;;1.60;;
39264;SDS011;42646;51.910;7.724;2022-07-29T03:24:23;4.03;;;1.70;;
39264;SDS011;42646;51.910;7.724;2022-07-29T03:26:53;3.55;;;1.63;;
39264;SDS011;42646;51.910;7.724;2022-07-29T03:29:22;3.53;;;1.60;;
39264;SDS011;42646;51.910;7.724;2022-07-29T03:31:59;3.45;;;1.60;;
39264;SDS011;42646;51.910;7.724;2022-07-29T03:34:33;2.90;;;1.60;;
39264;SDS011;42646;51.910;7.724;2022-07-29T03:37:01;3.05;;;1.70;;
39264;SDS011;42646;51.910;7.724;2022-07-29T03:39:29;4.22;;;1.60;;
39264;SDS011;42646;51.910;7.724;2022-07-29T03:42:00;4.43;;;1.70;;
39264;SDS011;42646;51.910;7.724;2022-07-29T03:44:29;2.50;;;1.30;;
39264;SDS011;42646;51.910;7.724;2022-07-29T03:47:01;2.83;;;1.48;;
39264;SDS011;42646;51.910;7.724;2022-07-29T03:49:30;4.97;;;1.73;;
39264;SDS011;42646;51.910;7.724;2022-07-29T03:51:59;4.65;;;1.77;;
39264;SDS011;42646;51.910;7.724;2022-07-29T03:54:27;3.90;;;1.60;;
39264;SDS011;42646;51.910;7.724;2022-07-29T03:56:55;5.75;;;1.77;;
39264;SDS011;42646;51.910;7.724;2022-07-29T03:59:26;3.72;;;1.67;;
39264;SDS011;42646;51.910;7.724;2022-07-29T04:01:55;3.47;;;1.60;;
39264;SDS011;42646;51.910;7.724;2022-07-29T04:04:26;4.03;;;1.92;;
39264;SDS011;42646;51.910;7.724;2022-07-29T04:06:54;3.72;;;1.60;;
39264;SDS011;42646;51.910;7.724;2022-07-29T04:09:21;3.50;;;1.60;;
39264;SDS011;42646;51.910;7.724;2022-07-29T04:11:49;3.22;;;1.65;;
39264;SDS011;42646;51.910;7.724;2022-07-29T04:14:29;3.70;;;1.50;;
39264;SDS011;42646;51.910;7.724;2022-07-29T04:16:57;4.07;;;1.75;;
39264;SDS011;42646;51.910;7.724;2022-07-29T04:19:26;3.63;;;1.50;;
39264;SDS011;42646;51.910;7.724;2022-07-29T04:21:55;3.55;;;1.65;;
39264;SDS011;42646;51.910;7.724;2022-07-29T04:24:23;4.80;;;1.80;;
39264;SDS011;42646;51.910;7.724;2022-07-29T04:26:51;4.05;;;1.75;;
39264;SDS011;42646;51.910;7.724;2022-07-29T04:29:18;4.43;;;1.52;;
39264;SDS011;42646;51.910;7.724;2022-07-29T04:31:46;3.90;;;1.73;;
39264;SDS011;42646;51.910;7.724;2022-07-29T04:34:14;3.35;;;1.55;;
39264;SDS011;42646;51.910;7.724;2022-07-29T04:36:44;4.60;;;1.73;;
39264;SDS011;42646;51.910;7.724;2022-07-29T04:39:12;4.13;;;1.60;;
39264;SDS011;42646;51.910;7.724;2022-07-29T04:41:47;4.70;;;1.60;;
39264;SDS011;42646;51.910;7.724;2022-07-29T04:44:17;3.97;;;1.50;;
39264;SDS011;42646;51.910;7.724;2022-07-29T04:46:45;3.47;;;1.77;;
39264;SDS011;42646;51.910;7.724;2022-07-29T04:49:13;3.60;;;1.98;;
39264;SDS011;42646;51.910;7.724;2022-07-29T04:51:41;3.97;;;1.60;;
39264;SDS011;42646;51.910;7.724;2022-07-29T04:54:10;3.85;;;1.67;;
39264;SDS011;42646;51.910;7.724;2022-07-29T04:56:38;4.13;;;1.60;;
39264;SDS011;42646;51.910;7.724;2022-07-29T04:59:06;5.10;;;2.03;;
39264;SDS011;42646;51.910;7.724;2022-07-29T05:01:33;4.78;;;1.77;;
39264;SDS011;42646;51.910;7.724;2022-07-29T05:04:01;4.85;;;1.65;;
39264;SDS011;42646;51.910;7.724;2022-07-29T05:06:29;4.38;;;2.05;;
39264;SDS011;42646;51.910;7.724;2022-07-29T05:08:57;4.53;;;1.60;;
39264;SDS011;42646;51.910;7.724;2022-07-29T05:11:26;4.10;;;1.60;;
39264;SDS011;42646;51.910;7.724;2022-07-29T05:13:55;4.32;;;1.88;;
39264;SDS011;42646;51.910;7.724;2022-07-29T05:16:23;5.35;;;1.50;;
39264;SDS011;42646;51.910;7.724;2022-07-29T05:18:51;4.72;;;1.70;;
39264;SDS011;42646;51.910;7.724;2022-07-29T05:21:19;3.78;;;1.92;;
39264;SDS011;42646;51.910;7.724;2022-07-29T05:23:46;4.20;;;1.77;;
39264;SDS011;42646;51.910;7.724;2022-07-29T05:26:14;5.40;;;2.03;;
39264;SDS011;42646;51.910;7.724;2022-07-29T05:28:43;4.15;;;1.50;;
39264;SDS011;42646;51.910;7.724;2022-07-29T05:31:10;3.78;;;1.75;;
39264;SDS011;42646;51.910;7.724;2022-07-29T05:33:40;5.18;;;1.63;;
39264;SDS011;42646;51.910;7.724;2022-07-29T05:36:08;6.22;;;1.85;;
39264;SDS011;42646;51.910;7.724;2022-07-29T05:38:36;4.15;;;1.63;;
39264;SDS011;42646;51.910;7.724;2022-07-29T05:41:03;3.65;;;1.70;;
39264;SDS011;42646;51.910;7.724;2022-07-29T05:43:31;3.55;;;1.52;;
39264;SDS011;42646;51.910;7.724;2022-07-29T05:46:00;3.97;;;1.65;;
39264;SDS011;42646;51.910;7.724;2022-07-29T05:48:28;3.55;;;1.88;;
39264;SDS011;42646;51.910;7.724;2022-07-29T05:50:56;2.70;;;1.50;;
39264;SDS011;42646;51.910;7.724;2022-07-29T05:53:23;4.13;;;1.60;;
39264;SDS011;42646;51.910;7.724;2022-07-29T05:55:51;4.72;;;1.85;;
39264;SDS011;42646;51.910;7.724;2022-07-29T05:58:19;3.88;;;1.55;;
39264;SDS011;42646;51.910;7.724;2022-07-29T06:00:47;5.30;;;1.60;;
39264;SDS011;42646;51.910;7.724;2022-07-29T06:03:16;4.35;;;1.70;;
39264;SDS011;42646;51.910;7.724;2022-07-29T06:05:44;3.58;;;1.60;;
39264;SDS011;42646;51.910;7.724;2022-07-29T06:08:11;4.40;;;1.73;;
39264;SDS011;42646;51.910;7.724;2022-07-29T06:10:39;4.80;;;1.50;;
39264;SDS011;42646;51.910;7.724;2022-07-29T06:13:06;4.22;;;1.73;;
39264;SDS011;42646;51.910;7.724;2022-07-29T06:15:34;4.00;;;1.70;;
39264;SDS011;42646;51.910;7.724;2022-07-29T06:18:02;6.30;;;1.80;;
39264;SDS011;42646;51.910;7.724;2022-07-29T06:20:31;4.43;;;1.63;;
39264;SDS011;42646;51.910;7.724;2022-07-29T06:22:59;4.75;;;1.80;;
39264;SDS011;42646;51.910;7.724;2022-07-29T06:25:27;5.95;;;1.90;;
39264;SDS011;42646;51.910;7.724;2022-07-29T06:27:56;4.18;;;1.40;;
39264;SDS011;42646;51.910;7.724;2022-07-29T06:30:24;5.22;;;1.80;;
39264;SDS011;42646;51.910;7.724;2022-07-29T06:32:51;3.38;;;1.70;;
39264;SDS011;42646;51.910;7.724;2022-07-29T06:35:19;5.22;;;1.88;;
39264;SDS011;42646;51.910;7.724;2022-07-29T06:38:09;4.65;;;1.85;;
39264;SDS011;42646;51.910;7.724;2022-07-29T06:40:57;4.93;;;1.70;;
39264;SDS011;42646;51.910;7.724;2022-07-29T06:43:30;3.88;;;1.63;;
39264;SDS011;42646;51.910;7.724;2022-07-29T06:46:00;4.23;;;1.70;;
39264;SDS011;42646;51.910;7.724;2022-07-29T06:48:30;3.67;;;1.67;;
39264;SDS011;42646;51.910;7.724;2022-07-29T06:50:58;7.07;;;1.90;;
39264;SDS011;42646;51.910;7.724;2022-07-29T06:53:28;4.47;;;2.00;;
39264;SDS011;42646;51.910;7.724;2022-07-29T06:55:56;6.10;;;2.63;;
39264;SDS011;42646;51.910;7.724;2022-07-29T06:58:24;4.93;;;1.83;;
39264;SDS011;42646;51.910;7.724;2022-07-29T07:00:55;5.80;;;1.70;;
39264;SDS011;42646;51.910;7.724;2022-07-29T07:03:23;4.80;;;1.55;;
39264;SDS011;42646;51.910;7.724;2022-07-29T07:05:52;5.88;;;2.15;;
39264;SDS011;42646;51.910;7.724;2022-07-29T07:08:21;5.97;;;1.70;;
39264;SDS011;42646;51.910;7.724;2022-07-29T07:10:51;5.88;;;1.88;;
39264;SDS011;42646;51.910;7.724;2022-07-29T07:13:19;5.45;;;2.17;;
39264;SDS011;42646;51.910;7.724;2022-07-29T07:15:47;4.43;;;1.70;;
39264;SDS011;42646;51.910;7.724;2022-07-29T07:18:15;5.05;;;1.77;;
39264;SDS011;42646;51.910;7.724;2022-07-29T07:20:43;4.38;;;1.77;;
39264;SDS011;42646;51.910;7.724;2022-07-29T07:23:11;4.95;;;1.75;;
39264;SDS011;42646;51.910;7.724;2022-07-29T07:25:38;5.63;;;2.15;;
39264;SDS011;42646;51.910;7.724;2022-07-29T07:28:08;3.97;;;1.80;;
39264;SDS011;42646;51.910;7.724;2022-07-29T07:30:35;3.50;;;1.60;;
39264;SDS011;42646;51.910;7.724;2022-07-29T07:33:03;4.95;;;1.90;;
39264;SDS011;42646;51.910;7.724;2022-07-29T07:35:31;5.32;;;1.77;;
39264;SDS011;42646;51.910;7.724;2022-07-29T07:37:59;3.65;;;1.75;;
39264;SDS011;42646;51.910;7.724;2022-07-29T07:40:26;7.65;;;1.90;;
39264;SDS011;42646;51.910;7.724;2022-07-29T07:42:54;4.95;;;1.80;;
39264;SDS011;42646;51.910;7.724;2022-07-29T07:45:23;6.53;;;1.60;;
39264;SDS011;42646;51.910;7.724;2022-07-29T07:47:51;5.05;;;1.70;;
39264;SDS011;42646;51.910;7.724;2022-07-29T07:50:19;5.82;;;1.77;;
39264;SDS011;42646;51.910;7.724;2022-07-29T07:52:47;4.30;;;1.70;;
39264;SDS011;42646;51.910;7.724;2022-07-29T07:55:17;4.18;;;1.70;;
39264;SDS011;42646;51.910;7.724;2022-07-29T07:57:45;3.97;;;1.70;;
39264;SDS011;42646;51.910;7.724;2022-07-29T08:00:13;4.53;;;1.80;;
39264;SDS011;42646;51.910;7.724;2022-07-29T08:02:43;7.88;;;2.28;;
39264;SDS011;42646;51.910;7.724;2022-07-29T08:05:12;3.85;;;1.80;;
39264;SDS011;42646;51.910;7.724;2022-07-29T08:07:44;4.00;;;2.00;;
39264;SDS011;42646;51.910;7.724;2022-07-29T08:10:12;4.75;;;2.25;;
39264;SDS011;42646;51.910;7.724;2022-07-29T08:12:41;6.50;;;2.88;;
39264;SDS011;42646;51.910;7.724;2022-07-29T08:15:09;4.88;;;2.10;;
39264;SDS011;42646;51.910;7.724;2022-07-29T08:17:36;4.35;;;2.00;;
39264;SDS011;42646;51.910;7.724;2022-07-29T08:20:06;4.93;;;1.85;;
39264;SDS011;42646;51.910;7.724;2022-07-29T08:22:34;5.43;;;1.77;;
39264;SDS011;42646;51.910;7.724;2022-07-29T08:25:01;5.70;;;2.17;;
39264;SDS011;42646;51.910;7.724;2022-07-29T08:27:29;4.97;;;1.75;;
39264;SDS011;42646;51.910;7.724;2022-07-29T08:30:09;4.57;;;1.95;;
39264;SDS011;42646;51.910;7.724;2022-07-29T08:32:37;5.60;;;1.85;;
39264;SDS011;42646;51.910;7.724;2022-07-29T08:35:23;3.60;;;1.75;;
39264;SDS011;42646;51.910;7.724;2022-07-29T08:37:54;4.95;;;1.98;;
39264;SDS011;42646;51.910;7.724;2022-07-29T08:40:23;6.63;;;2.05;;
39264;SDS011;42646;51.910;7.724;2022-07-29T08:42:58;4.97;;;1.80;;
39264;SDS011;42646;51.910;7.724;2022-07-29T08:45:26;7.65;;;2.08;;
39264;SDS011;42646;51.910;7.724;2022-07-29T08:47:56;4.63;;;1.70;;
39264;SDS011;42646;51.910;7.724;2022-07-29T08:50:25;5.68;;;1.80;;
39264;SDS011;42646;51.910;7.724;2022-07-29T08:52:53;3.67;;;1.60;;
39264;SDS011;42646;51.910;7.724;2022-07-29T08:55:25;4.68;;;1.90;;
39264;SDS011;42646;51.910;7.724;2022-07-29T08:57:53;4.25;;;1.80;;
39264;SDS011;42646;51.910;7.724;2022-07-29T09:00:22;3.28;;;1.80;;
39264;SDS011;42646;51.910;7.724;2022-07-29T09:02:55;3.88;;;1.60;;
39264;SDS011;42646;51.910;7.724;2022-07-29T09:05:26;5.00;;;1.85;;
39264;SDS011;42646;51.910;7.724;2022-07-29T09:07:55;4.93;;;1.98;;
39264;SDS011;42646;51.910;7.724;2022-07-29T09:10:23;6.25;;;2.05;;
39264;SDS011;42646;51.910;7.724;2022-07-29T09:12:51;4.28;;;1.80;;
39264;SDS011;42646;51.910;7.724;2022-07-29T09:15:19;4.30;;;1.83;;
39264;SDS011;42646;51.910;7.724;2022-07-29T09:17:47;6.88;;;2.17;;
39264;SDS011;42646;51.910;7.724;2022-07-29T09:20:17;20.67;;;3.13;;
39264;SDS011;42646;51.910;7.724;2022-07-29T09:22:47;12.80;;;2.70;;
39264;SDS011;42646;51.910;7.724;2022-07-29T09:25:31;4.90;;;1.80;;
39264;SDS011;42646;51.910;7.724;2022-07-29T09:28:05;12.50;;;2.42;;
39264;SDS011;42646;51.910;7.724;2022-07-29T09:30:33;25.08;;;4.60;;
39264;SDS011;42646;51.910;7.724;2022-07-29T09:33:03;14.00;;;3.17;;
39264;SDS011;42646;51.910;7.724;2022-07-29T09:35:30;7.32;;;2.08;;
39264;SDS011;42646;51.910;7.724;2022-07-29T09:38:01;5.80;;;1.80;;
39264;SDS011;42646;51.910;7.724;2022-07-29T09:40:37;7.68;;;1.80;;
39264;SDS011;42646;51.910;7.724;2022-07-29T09:43:11;7.70;;;2.00;;
39264;SDS011;42646;51.910;7.724;2022-07-29T09:45:40;6.43;;;1.70;;
39264;SDS011;42646;51.910;7.724;2022-07-29T09:48:14;6.70;;;1.90;;
39264;SDS011;42646;51.910;7.724;2022-07-29T09:50:43;5.50;;;1.83;;
39264;SDS011;42646;51.910;7.724;2022-07-29T09:53:17;6.43;;;1.90;;
39264;SDS011;42646;51.910;7.724;2022-07-29T09:55:57;5.30;;;1.80;;
39264;SDS011;42646;51.910;7.724;2022-07-29T09:58:25;5.28;;;1.75;;
39264;SDS011;42646;51.910;7.724;2022-07-29T10:00:54;4.88;;;2.08;;
39264;SDS011;42646;51.910;7.724;2022-07-29T10:03:23;5.78;;;1.92;;
39264;SDS011;42646;51.910;7.724;2022-07-29T10:06:04;5.75;;;1.80;;
39264;SDS011;42646;51.910;7.724;2022-07-29T10:08:35;5.43;;;1.65;;
39264;SDS011;42646;51.910;7.724;2022-07-29T10:11:10;5.97;;;1.60;;
39264;SDS011;42646;51.910;7.724;2022-07-29T10:13:39;5.55;;;1.75;;
39264;SDS011;42646;51.910;7.724;2022-07-29T10:16:08;5.25;;;1.70;;
39264;SDS011;42646;51.910;7.724;2022-07-29T10:18:37;3.47;;;1.65;;
39264;SDS011;42646;51.910;7.724;2022-07-29T10:21:06;4.85;;;1.73;;
39264;SDS011;42646;51.910;7.724;2022-07-29T10:23:35;4.10;;;1.52;;
39264;SDS011;42646;51.910;7.724;2022-07-29T10:26:12;6.20;;;1.70;;
39264;SDS011;42646;51.910;7.724;2022-07-29T10:28:40;5.45;;;1.70;;
39264;SDS011;42646;51.910;7.724;2022-07-29T10:31:10;4.80;;;1.92;;
39264;SDS011;42646;51.910;7.724;2022-07-29T10:33:47;4.30;;;1.90;;
39264;SDS011;42646;51.910;7.724;2022-07-29T10:36:38;5.43;;;1.60;;
39264;SDS011;42646;51.910;7.724;2022-07-29T10:39:19;4.50;;;1.92;;
39264;SDS011;42646;51.910;7.724;2022-07-29T10:42:11;4.50;;;1.70;;
39264;SDS011;42646;51.910;7.724;2022-07-29T10:44:45;5.50;;;2.03;;
39264;SDS011;42646;51.910;7.724;2022-07-29T10:47:20;6.25;;;1.90;;
39264;SDS011;42646;51.910;7.724;2022-07-29T10:49:56;4.15;;;1.70;;
39264;SDS011;42646;51.910;7.724;2022-07-29T10:55:36;7.53;;;2.10;;
39264;SDS011;42646;51.910;7.724;2022-07-29T10:58:14;8.02;;;2.00;;
39264;SDS011;42646;51.910;7.724;2022-07-29T11:00:44;6.47;;;2.22;;
39264;SDS011;42646;51.910;7.724;2022-07-29T11:06:16;4.83;;;2.00;;
39264;SDS011;42646;51.910;7.724;2022-07-29T11:11:52;5.25;;;2.10;;
39264;SDS011;42646;51.910;7.724;2022-07-29T11:14:30;4.93;;;2.28;;
39264;SDS011;42646;51.910;7.724;2022-07-29T11:17:23;5.53;;;2.10;;
39264;SDS011;42646;51.910;7.724;2022-07-29T11:19:51;8.15;;;2.50;;
39264;SDS011;42646;51.910;7.724;2022-07-29T11:23:17;7.68;;;2.70;;
39264;SDS011;42646;51.910;7.724;2022-07-29T11:25:54;6.10;;;2.38;;
39264;SDS011;42646;51.910;7.724;2022-07-29T11:28:50;8.37;;;2.33;;
39264;SDS011;42646;51.910;7.724;2022-07-29T11:31:35;9.23;;;2.88;;
39264;SDS011;42646;51.910;7.724;2022-07-29T11:34:18;6.78;;;2.58;;
39264;SDS011;42646;51.910;7.724;2022-07-29T11:40:12;4.40;;;2.20;;
39264;SDS011;42646;51.910;7.724;2022-07-29T11:42:47;4.32;;;2.45;;
39264;SDS011;42646;51.910;7.724;2022-07-29T11:45:19;5.18;;;2.50;;
39264;SDS011;42646;51.910;7.724;2022-07-29T11:50:57;7.57;;;2.40;;
39264;SDS011;42646;51.910;7.724;2022-07-29T11:53:28;6.50;;;2.45;;
39264;SDS011;42646;51.910;7.724;2022-07-29T11:56:16;4.85;;;2.53;;
39264;SDS011;42646;51.910;7.724;2022-07-29T11:58:51;5.50;;;2.28;;
39264;SDS011;42646;51.910;7.724;2022-07-29T12:01:35;6.28;;;2.40;;
39264;SDS011;42646;51.910;7.724;2022-07-29T12:04:03;4.32;;;2.30;;
39264;SDS011;42646;51.910;7.724;2022-07-29T12:06:32;7.55;;;2.40;;
39264;SDS011;42646;51.910;7.724;2022-07-29T12:09:05;6.60;;;2.28;;
39264;SDS011;42646;51.910;7.724;2022-07-29T12:11:39;6.28;;;2.72;;
39264;SDS011;42646;51.910;7.724;2022-07-29T12:14:23;7.25;;;2.50;;
39264;SDS011;42646;51.910;7.724;2022-07-29T12:16:54;5.93;;;2.60;;
39264;SDS011;42646;51.910;7.724;2022-07-29T12:19:22;6.45;;;2.60;;
39264;SDS011;42646;51.910;7.724;2022-07-29T12:21:51;6.35;;;2.40;;
39264;SDS011;42646;51.910;7.724;2022-07-29T12:24:22;11.80;;;3.13;;
39264;SDS011;42646;51.910;7.724;2022-07-29T12:26:53;6.30;;;2.40;;
39264;SDS011;42646;51.910;7.724;2022-07-29T12:29:22;6.50;;;2.67;;
39264;SDS011;42646;51.910;7.724;2022-07-29T12:32:02;4.75;;;2.40;;
39264;SDS011;42646;51.910;7.724;2022-07-29T12:34:40;6.88;;;2.58;;
39264;SDS011;42646;51.910;7.724;2022-07-29T12:37:08;5.38;;;2.55;;
39264;SDS011;42646;51.910;7.724;2022-07-29T12:39:36;7.03;;;2.55;;
39264;SDS011;42646;51.910;7.724;2022-07-29T12:42:10;5.32;;;2.85;;
39264;SDS011;42646;51.910;7.724;2022-07-29T12:44:43;7.05;;;3.00;;
39264;SDS011;42646;51.910;7.724;2022-07-29T12:47:14;5.43;;;2.50;;
39264;SDS011;42646;51.910;7.724;2022-07-29T12:49:41;6.32;;;2.80;;
39264;SDS011;42646;51.910;7.724;2022-07-29T12:52:28;4.78;;;2.45;;
39264;SDS011;42646;51.910;7.724;2022-07-29T12:54:57;5.55;;;2.60;;
39264;SDS011;42646;51.910;7.724;2022-07-29T12:57:25;5.97;;;2.58;;
39264;SDS011;42646;51.910;7.724;2022-07-29T13:00:00;4.80;;;2.40;;
39264;SDS011;42646;51.910;7.724;2022-07-29T13:02:32;4.72;;;2.63;;
39264;SDS011;42646;51.910;7.724;2022-07-29T13:05:03;4.65;;;2.50;;
39264;SDS011;42646;51.910;7.724;2022-07-29T13:07:32;7.65;;;2.92;;
39264;SDS011;42646;51.910;7.724;2022-07-29T13:10:22;5.32;;;2.50;;
39264;SDS011;42646;51.910;7.724;2022-07-29T13:13:01;4.90;;;2.53;;
39264;SDS011;42646;51.910;7.724;2022-07-29T13:15:29;7.20;;;2.53;;
39264;SDS011;42646;51.910;7.724;2022-07-29T13:17:59;5.43;;;2.65;;
39264;SDS011;42646;51.910;7.724;2022-07-29T13:20:28;5.80;;;2.42;;
39264;SDS011;42646;51.910;7.724;2022-07-29T13:22:57;6.07;;;2.70;;
39264;SDS011;42646;51.910;7.724;2022-07-29T13:25:26;6.63;;;2.70;;
39264;SDS011;42646;51.910;7.724;2022-07-29T13:27:55;5.47;;;2.70;;
39264;SDS011;42646;51.910;7.724;2022-07-29T13:30:23;5.68;;;2.70;;
39264;SDS011;42646;51.910;7.724;2022-07-29T13:32:51;6.00;;;2.80;;
39264;SDS011;42646;51.910;7.724;2022-07-29T13:35:22;6.28;;;3.08;;
39264;SDS011;42646;51.910;7.724;2022-07-29T13:37:49;5.30;;;2.95;;
39264;SDS011;42646;51.910;7.724;2022-07-29T13:40:17;6.18;;;3.03;;
39264;SDS011;42646;51.910;7.724;2022-07-29T13:42:45;6.40;;;3.20;;
39264;SDS011;42646;51.910;7.724;2022-07-29T13:45:12;6.28;;;3.47;;
39264;SDS011;42646;51.910;7.724;2022-07-29T13:47:41;4.90;;;2.92;;
39264;SDS011;42646;51.910;7.724;2022-07-29T13:50:14;7.18;;;2.85;;
39264;SDS011;42646;51.910;7.724;2022-07-29T13:52:44;6.65;;;2.80;;
39264;SDS011;42646;51.910;7.724;2022-07-29T13:55:14;5.78;;;2.85;;
39264;SDS011;42646;51.910;7.724;2022-07-29T13:57:41;6.38;;;3.08;;
39264;SDS011;42646;51.910;7.724;2022-07-29T14:00:09;6.57;;;3.30;;
39264;SDS011;42646;51.910;7.724;2022-07-29T14:02:38;8.18;;;3.00;;
39264;SDS011;42646;51.910;7.724;2022-07-29T14:05:06;5.63;;;3.08;;
39264;SDS011;42646;51.910;7.724;2022-07-29T14:07:36;5.68;;;3.10;;
39264;SDS011;42646;51.910;7.724;2022-07-29T14:10:06;5.82;;;2.78;;
39264;SDS011;42646;51.910;7.724;2022-07-29T14:12:35;6.30;;;2.90;;
39264;SDS011;42646;51.910;7.724;2022-07-29T14:15:03;6.60;;;3.13;;
39264;SDS011;42646;51.910;7.724;2022-07-29T14:17:31;6.43;;;2.90;;
39264;SDS011;42646;51.910;7.724;2022-07-29T14:19:59;7.55;;;3.08;;
39264;SDS011;42646;51.910;7.724;2022-07-29T14:22:26;7.68;;;3.10;;
39264;SDS011;42646;51.910;7.724;2022-07-29T14:24:55;5.88;;;2.90;;
39264;SDS011;42646;51.910;7.724;2022-07-29T14:27:31;4.35;;;2.42;;
39264;SDS011;42646;51.910;7.724;2022-07-29T14:30:04;5.68;;;2.80;;
39264;SDS011;42646;51.910;7.724;2022-07-29T14:32:32;5.03;;;2.60;;
39264;SDS011;42646;51.910;7.724;2022-07-29T14:35:00;5.75;;;2.58;;
39264;SDS011;42646;51.910;7.724;2022-07-29T14:37:28;5.47;;;2.70;;
39264;SDS011;42646;51.910;7.724;2022-07-29T14:40:07;4.32;;;2.60;;
39264;SDS011;42646;51.910;7.724;2022-07-29T14:42:37;6.47;;;2.50;;
39264;SDS011;42646;51.910;7.724;2022-07-29T14:45:06;5.05;;;2.58;;
39264;SDS011;42646;51.910;7.724;2022-07-29T14:47:35;5.25;;;2.70;;
39264;SDS011;42646;51.910;7.724;2022-07-29T14:50:04;6.57;;;2.70;;
39264;SDS011;42646;51.910;7.724;2022-07-29T14:52:33;5.05;;;2.38;;
39264;SDS011;42646;51.910;7.724;2022-07-29T14:55:01;6.55;;;2.50;;
39264;SDS011;42646;51.910;7.724;2022-07-29T14:57:29;4.10;;;2.15;;
39264;SDS011;42646;51.910;7.724;2022-07-29T14:59:58;5.35;;;2.53;;
39264;SDS011;42646;51.910;7.724;2022-07-29T15:02:25;4.32;;;2.50;;
39264;SDS011;42646;51.910;7.724;2022-07-29T15:05:13;5.00;;;2.22;;
39264;SDS011;42646;51.910;7.724;2022-07-29T15:07:41;7.65;;;2.03;;
39264;SDS011;42646;51.910;7.724;2022-07-29T15:10:09;4.35;;;1.98;;
39264;SDS011;42646;51.910;7.724;2022-07-29T15:12:41;6.22;;;2.17;;
39264;SDS011;42646;51.910;7.724;2022-07-29T15:15:10;5.15;;;2.20;;
39264;SDS011;42646;51.910;7.724;2022-07-29T15:17:37;4.30;;;2.03;;
39264;SDS011;42646;51.910;7.724;2022-07-29T15:20:05;3.50;;;2.20;;
39264;SDS011;42646;51.910;7.724;2022-07-29T15:22:33;6.15;;;2.45;;
39264;SDS011;42646;51.910;7.724;2022-07-29T15:25:01;7.22;;;2.30;;
39264;SDS011;42646;51.910;7.724;2022-07-29T15:27:29;5.82;;;2.20;;
39264;SDS011;42646;51.910;7.724;2022-07-29T15:29:57;5.85;;;2.30;;